Time;durP1;ratioP1;P1;durP2;ratioP2;P2;SDS_P1;SDS_P2;PMS_P1;PMS_P2;Temp;Humidity;BMP_temperature;BMP_pressure;BME280_temperature;BME280_humidity;BME280_pressure;Samples;Min_cycle;Max_cycle;Signal;HPM_P1;HPM_P2
2022/01/05 00:01:18;;;;;;;41.70;24.98;;;;;;;3.69;75.87;99614.81;5108800;28;20032;-21
2022/01/05 00:03:43;;;;;;;45.38;27.40;;;;;;;2.99;77.75;99601.13;5108812;28;20043;-21
2022/01/05 00:06:08;;;;;;;57.08;30.58;;;;;;;3.22;77.65;99606.31;5108709;28;20024;-21
2022/01/05 00:08:34;;;;;;;44.63;26.23;;;;;;;3.79;76.40;99615.31;5108383;28;20080;-21
2022/01/05 00:10:59;;;;;;;34.38;20.05;;;;;;;3.32;77.14;99615.75;5108151;28;20573;-21
2022/01/05 00:13:25;;;;;;;39.50;23.40;;;;;;;3.57;77.18;99611.81;5108938;28;20027;-21
2022/01/05 00:15:50;;;;;;;52.40;29.95;;;;;;;3.88;75.66;99609.94;5108610;28;20032;-21
2022/01/05 00:18:16;;;;;;;46.05;27.80;;;;;;;4.22;74.85;99609.28;5108070;28;20048;-21
2022/01/05 00:20:43;;;;;;;48.80;28.52;;;;;;;4.12;73.86;99585.03;5108610;28;20035;-21
2022/01/05 00:23:08;;;;;;;52.38;29.67;;;;;;;3.96;75.33;99597.47;5108021;28;20031;-20
2022/01/05 00:25:34;;;;;;;52.03;29.15;;;;;;;3.90;75.41;99624.56;5108121;28;20479;-21
2022/01/05 00:27:59;;;;;;;51.53;28.23;;;;;;;3.83;75.99;99626.31;5108309;28;20039;-21
2022/01/05 00:30:25;;;;;;;45.90;26.98;;;;;;;3.75;75.85;99626.44;5108361;28;20035;-22
2022/01/05 00:32:50;;;;;;;44.90;27.05;;;;;;;3.98;74.88;99627.13;5108097;28;20069;-22
2022/01/05 00:35:15;;;;;;;47.10;28.92;;;;;;;3.61;76.37;99610.44;5108285;28;20027;-21
2022/01/05 00:37:41;;;;;;;41.15;24.42;;;;;;;3.49;76.40;99616.38;5108137;28;20517;-21
2022/01/05 00:40:07;;;;;;;53.33;28.65;;;;;;;2.84;78.31;99588.94;5108302;28;20031;-20
2022/01/05 00:42:33;;;;;;;71.45;36.45;;;;;;;3.35;77.24;99610.13;5108214;28;20038;-21
2022/01/05 00:44:58;;;;;;;56.45;30.80;;;;;;;3.42;77.11;99624.22;5108473;28;20032;-23
2022/01/05 00:47:24;;;;;;;51.13;26.92;;;;;;;3.76;74.69;99643.88;5089645;28;20482;-21
2022/01/05 00:49:49;;;;;;;47.35;27.05;;;;;;;3.99;73.83;99639.28;5108026;28;20039;-21
2022/01/05 00:52:15;;;;;;;45.95;26.13;;;;;;;4.42;72.51;99635.88;5108259;28;20039;-21
2022/01/05 00:54:41;;;;;;;49.33;28.63;;;;;;;4.12;73.43;99648.34;5107816;28;20088;-22
2022/01/05 00:57:06;;;;;;;50.65;28.02;;;;;;;4.12;73.93;99651.00;5106761;28;20414;-22
2022/01/05 00:59:32;;;;;;;50.63;26.63;;;;;;;3.46;74.41;99620.22;5107884;28;20032;-21
2022/01/05 01:01:57;;;;;;;54.58;28.75;;;;;;;3.53;74.98;99636.91;5111645;28;20036;-21
2022/01/05 01:04:23;;;;;;;48.95;28.80;;;;;;;3.51;75.27;99631.00;5111761;28;20479;-21
2022/01/05 01:06:48;;;;;;;100.18;65.43;;;;;;;3.60;75.38;99623.84;5111867;28;20031;-23
2022/01/05 01:09:14;;;;;;;55.65;38.38;;;;;;;3.60;75.08;99624.63;5111762;28;20023;-21
2022/01/05 01:11:39;;;;;;;102.38;81.28;;;;;;;3.72;74.43;99626.78;5111564;28;20035;-21
2022/01/05 01:14:05;;;;;;;51.80;37.22;;;;;;;3.55;76.42;99629.63;5111558;28;20024;-21
2022/01/05 01:16:30;;;;;;;42.58;29.02;;;;;;;3.38;76.27;99628.22;5111603;28;20099;-21
2022/01/05 01:18:56;;;;;;;42.70;24.60;;;;;;;3.79;74.77;99631.16;5111303;28;20543;-21
2022/01/05 01:21:22;;;;;;;36.85;22.45;;;;;;;3.56;75.17;99607.56;5093210;28;20031;-21
2022/01/05 01:23:56;;;;;;;37.75;23.02;;;;;;;4.11;73.17;99622.97;5111328;28;20062;-21
2022/01/05 01:26:26;;;;;;;46.50;30.23;;;;;;;3.70;73.72;99586.59;5111684;28;20106;-20
2022/01/05 01:28:51;;;;;;;41.42;23.00;;;;;;;3.81;74.06;99604.59;5111257;28;20023;-23
2022/01/05 01:31:17;;;;;;;36.42;22.63;;;;;;;3.87;74.21;99597.75;5093409;28;20031;-21
2022/01/05 01:33:42;;;;;;;39.80;21.75;;;;;;;4.22;72.58;99604.00;5093175;28;20032;-21
2022/01/05 01:36:08;;;;;;;35.83;22.10;;;;;;;4.19;72.50;99604.38;5111109;28;20034;-21
2022/01/05 01:38:33;;;;;;;37.55;23.02;;;;;;;3.91;74.53;99599.84;5092835;28;20032;-21
2022/01/05 01:40:59;;;;;;;44.72;25.58;;;;;;;4.06;74.55;99591.06;5111028;28;20024;-21
2022/01/05 01:43:24;;;;;;;53.00;33.08;;;;;;;4.25;73.89;99579.88;5092732;28;20031;-21
2022/01/05 01:45:50;;;;;;;50.45;30.63;;;;;;;4.06;75.49;99562.03;5093339;28;20390;-21
2022/01/05 01:48:15;;;;;;;65.93;34.20;;;;;;;3.59;77.27;99574.72;5092842;28;20035;-20
2022/01/05 01:50:41;;;;;;;48.22;26.55;;;;;;;3.21;78.66;99565.16;5111042;28;20031;-21
2022/01/05 01:53:06;;;;;;;49.03;25.25;;;;;;;3.48;77.86;99573.38;5110776;28;20024;-21
2022/01/05 01:55:32;;;;;;;45.25;25.58;;;;;;;3.91;76.19;99573.44;5111251;28;20533;-21
2022/01/05 01:57:57;;;;;;;43.30;25.73;;;;;;;3.88;76.02;99573.00;5092625;28;20435;-21
2022/01/05 02:00:23;;;;;;;39.20;22.30;;;;;;;3.77;76.67;99569.03;5075302;28;20513;-21
2022/01/05 02:02:48;;;;;;;42.22;24.27;;;;;;;3.37;77.47;99550.13;5110854;28;20383;-21
2022/01/05 02:05:13;;;;;;;37.92;21.20;;;;;;;2.80;78.91;99560.34;5110751;28;20329;-21
2022/01/05 02:07:39;;;;;;;31.20;20.17;;;;;;;2.73;78.64;99569.94;5110595;28;20120;-21
2022/01/05 02:10:06;;;;;;;31.02;19.58;;;;;;;3.43;75.23;99578.38;5110856;28;20122;-22
2022/01/05 02:12:31;;;;;;;30.33;16.95;;;;;;;2.77;74.80;99571.22;5110439;28;20034;-21
2022/01/05 02:14:57;;;;;;;30.20;16.38;;;;;;;2.61;75.18;99545.06;5110285;28;20050;-21
2022/01/05 02:17:30;;;;;;;32.53;16.48;;;;;;;2.94;73.16;99573.69;5110388;28;20052;-21
2022/01/05 02:19:55;;;;;;;31.17;17.60;;;;;;;2.18;76.34;99571.91;5110496;28;20040;-21
2022/01/05 02:22:21;;;;;;;44.28;16.70;;;;;;;2.37;75.25;99570.63;5110770;28;20460;-21
2022/01/05 02:24:47;;;;;;;35.25;16.88;;;;;;;2.12;76.65;99566.53;5110234;28;20043;-21
2022/01/05 02:27:16;;;;;;;37.75;16.85;;;;;;;2.77;74.16;99571.22;5109979;28;20134;-22
2022/01/05 02:29:42;;;;;;;38.85;15.95;;;;;;;2.00;75.68;99551.19;5110312;28;20031;-21
2022/01/05 02:32:07;;;;;;;41.53;16.20;;;;;;;1.59;78.31;99571.66;5110231;28;20031;-20
2022/01/05 02:34:33;;;;;;;76.80;18.45;;;;;;;1.95;78.21;99566.66;5110320;28;20046;-21
2022/01/05 02:36:59;;;;;;;56.95;18.40;;;;;;;2.12;77.91;99569.19;5091532;28;20094;-21
2022/01/05 02:39:24;;;;;;;53.38;16.67;;;;;;;2.39;76.37;99558.13;5109855;28;20023;-21
2022/01/05 02:41:50;;;;;;;85.50;20.25;;;;;;;2.21;78.21;99573.41;5110056;28;20807;-21
2022/01/05 02:44:16;;;;;;;61.95;17.25;;;;;;;1.60;80.38;99568.84;5109941;28;20533;-21
2022/01/05 02:46:41;;;;;;;71.85;17.63;;;;;;;1.14;81.91;99554.78;5110161;28;20024;-21
2022/01/05 02:49:07;;;;;;;80.72;18.95;;;;;;;1.19;82.59;99576.94;5109552;28;20476;-21
2022/01/05 02:51:32;;;;;;;84.18;19.60;;;;;;;1.19;83.07;99576.94;5109969;28;20031;-21
2022/01/05 02:53:58;;;;;;;90.22;17.55;;;;;;;0.66;84.03;99554.78;5109810;28;20031;-21
2022/01/05 02:56:23;;;;;;;56.25;17.13;;;;;;;1.05;83.84;99559.25;5109884;28;20055;-21
2022/01/05 02:58:48;;;;;;;55.58;18.00;;;;;;;1.44;82.02;99579.47;5109488;28;20023;-21
2022/01/05 03:01:14;;;;;;;87.88;19.17;;;;;;;2.20;79.27;99569.94;5109714;28;20080;-21
2022/01/05 03:03:39;;;;;;;95.50;20.38;;;;;;;2.13;79.48;99568.19;5091652;28;20039;-21
2022/01/05 03:06:05;;;;;;;39.35;19.27;;;;;;;2.29;80.59;99568.06;5109475;28;20019;-20
2022/01/05 03:08:30;;;;;;;57.97;17.23;;;;;;;2.53;79.70;99551.22;5109579;28;20050;-21
2022/01/05 03:10:56;;;;;;;50.15;16.95;;;;;;;2.67;79.43;99549.59;5109794;28;20035;-21
2022/01/05 03:13:23;;;;;;;84.28;20.70;;;;;;;2.67;78.75;99530.38;5109360;28;20039;-21
2022/01/05 03:15:52;;;;;;;62.85;18.98;;;;;;;2.34;80.82;99549.09;5109363;28;20028;-20
2022/01/05 03:18:17;;;;;;;42.42;16.63;;;;;;;2.61;79.39;99553.78;5108894;28;20090;-21
2022/01/05 03:20:45;;;;;;;58.30;17.63;;;;;;;2.76;79.12;99558.25;5109037;28;20064;-21
2022/01/05 03:23:11;;;;;;;48.38;19.20;;;;;;;2.62;78.73;99567.78;5108398;28;20042;-21
2022/01/05 03:25:37;;;;;;;116.35;24.38;;;;;;;2.87;78.95;99565.69;5109033;28;20058;-21
2022/01/05 03:28:02;;;;;;;55.67;19.42;;;;;;;2.46;79.13;99562.66;5109028;28;20475;-21
2022/01/05 03:30:28;;;;;;;76.15;19.65;;;;;;;2.44;80.00;99572.56;5109117;28;20030;-21
2022/01/05 03:35:20;;;;;;;62.90;21.58;;;;;;;2.49;79.82;99549.13;5090776;28;20111;-21
2022/01/05 03:37:46;;;;;;;60.38;21.17;;;;;;;2.87;78.07;99549.09;5108878;28;20032;-20
2022/01/05 03:40:11;;;;;;;57.83;29.75;;;;;;;2.75;78.27;99557.41;5108881;28;20039;-21
2022/01/05 03:42:37;;;;;;;62.35;31.23;;;;;;;3.03;77.00;99537.56;5108777;28;20031;-22
2022/01/05 03:45:02;;;;;;;44.22;24.80;;;;;;;2.89;76.60;99541.81;5108552;28;20513;-21
2022/01/05 03:47:28;;;;;;;31.38;18.63;;;;;;;2.38;79.06;99537.22;5108804;28;20039;-21
2022/01/05 03:49:53;;;;;;;31.33;17.60;;;;;;;2.61;77.69;99539.81;5108765;28;20031;-21
2022/01/05 03:52:19;;;;;;;36.55;20.50;;;;;;;2.64;76.92;99525.47;5108834;28;20039;-21
2022/01/05 03:54:45;;;;;;;35.60;20.00;;;;;;;2.41;79.02;99529.81;5108574;28;20042;-21
2022/01/05 03:57:10;;;;;;;51.35;25.13;;;;;;;2.33;79.62;99531.66;5090058;28;20035;-21
2022/01/05 03:59:36;;;;;;;56.33;29.60;;;;;;;2.48;79.38;99524.63;5108407;28;20031;-21
2022/01/05 04:02:01;;;;;;;57.65;24.42;;;;;;;2.89;77.55;99515.50;5108590;28;20035;-20
2022/01/05 04:04:27;;;;;;;128.90;96.15;;;;;;;2.48;78.47;99508.03;5108319;28;20031;-21
2022/01/05 04:06:52;;;;;;;49.45;30.20;;;;;;;2.89;77.03;99526.84;5108456;28;20077;-21
2022/01/05 04:09:17;;;;;;;56.85;33.75;;;;;;;2.19;79.25;99525.41;5108327;28;20479;-21
2022/01/05 04:11:43;;;;;;;43.90;31.33;;;;;;;1.86;80.56;99530.91;5108185;28;20430;-23
2022/01/05 04:14:09;;;;;;;52.78;32.63;;;;;;;1.50;82.13;99536.72;5108436;28;20060;-21
2022/01/05 04:16:34;;;;;;;73.78;34.20;;;;;;;1.57;82.21;99540.31;5108128;28;20415;-21
2022/01/05 04:18:59;;;;;;;42.42;23.50;;;;;;;1.72;81.34;99539.56;5107834;28;20067;-21
2022/01/05 04:21:25;;;;;;;45.28;21.77;;;;;;;1.38;82.33;99535.47;5108411;28;20430;-21
2022/01/05 04:23:52;;;;;;;38.72;18.27;;;;;;;1.19;83.77;99544.59;5108359;28;20042;-21
2022/01/05 04:26:18;;;;;;;40.13;18.50;;;;;;;1.65;81.68;99541.22;5108209;28;20027;-22
2022/01/05 04:28:44;;;;;;;49.33;19.30;;;;;;;1.34;81.97;99545.50;5108356;28;20898;-21
2022/01/05 04:31:09;;;;;;;53.60;20.15;;;;;;;1.52;82.17;99534.75;5107731;28;20154;-21
2022/01/05 04:33:35;;;;;;;53.85;22.90;;;;;;;2.02;79.70;99545.75;5107913;28;20055;-21
2022/01/05 04:36:00;;;;;;;50.05;19.05;;;;;;;1.86;78.18;99554.59;5112422;28;20034;-21
2022/01/05 04:38:25;;;;;;;43.28;19.52;;;;;;;2.14;77.52;99539.06;5112146;28;20020;-21
2022/01/05 04:40:51;;;;;;;39.72;17.30;;;;;;;1.65;79.33;99551.75;5111780;28;20088;-21
2022/01/05 04:43:16;;;;;;;58.13;24.23;;;;;;;1.62;79.24;99534.53;5112257;28;20487;-21
2022/01/05 04:45:42;;;;;;;45.22;19.75;;;;;;;1.22;80.96;99532.94;5112597;28;20411;-21
2022/01/05 04:48:07;;;;;;;38.42;20.95;;;;;;;1.04;82.37;99541.84;5112336;28;20023;-20
2022/01/05 04:50:33;;;;;;;44.35;19.80;;;;;;;0.43;82.74;99512.69;5112084;28;20031;-21
2022/01/05 04:52:58;;;;;;;45.83;18.73;;;;;;;0.74;82.79;99531.13;5111927;28;20032;-21
2022/01/05 04:55:24;;;;;;;35.28;17.02;;;;;;;0.53;82.76;99528.22;5111964;28;20047;-22
2022/01/05 04:57:49;;;;;;;53.47;21.45;;;;;;;1.02;82.26;99546.44;5111841;28;20035;-21
2022/01/05 05:00:15;;;;;;;52.03;19.27;;;;;;;0.90;82.05;99539.94;5112191;28;20089;-21
2022/01/05 05:02:40;;;;;;;36.75;18.20;;;;;;;1.17;80.60;99552.66;5112010;28;20031;-21
2022/01/05 05:05:06;;;;;;;36.30;17.27;;;;;;;1.37;79.83;99547.00;5111814;28;20042;-21
2022/01/05 05:07:31;;;;;;;44.28;23.17;;;;;;;1.51;80.44;99548.88;5111887;28;20081;-27
2022/01/05 05:09:57;;;;;;;30.33;17.45;;;;;;;1.89;77.16;99527.13;5111696;28;20531;-21
2022/01/05 05:12:22;;;;;;;49.20;24.88;;;;;;;2.02;76.43;99566.78;5111881;28;20452;-21
2022/01/05 05:14:48;;;;;;;54.17;26.77;;;;;;;1.87;77.03;99553.56;5111620;28;20035;-21
2022/01/05 05:17:13;;;;;;;104.88;43.95;;;;;;;1.64;78.13;99558.81;5110929;28;20104;-21
2022/01/05 05:19:39;;;;;;;161.77;50.47;;;;;;;1.47;79.40;99562.53;5111738;28;20024;-21
2022/01/05 05:22:04;;;;;;;86.00;33.97;;;;;;;1.91;77.25;99565.38;5111631;28;20479;-22
2022/01/05 05:24:30;;;;;;;57.72;26.02;;;;;;;1.94;76.01;99566.84;5111361;28;20024;-21
2022/01/05 05:26:55;;;;;;;47.88;23.95;;;;;;;1.88;75.82;99571.00;5111187;28;20024;-22
2022/01/05 05:29:20;;;;;;;43.17;21.17;;;;;;;1.63;75.76;99557.16;5111270;28;20020;-21
2022/01/05 05:31:46;;;;;;;102.40;41.88;;;;;;;1.76;76.21;99567.13;5111600;28;20035;-21
2022/01/05 05:34:11;;;;;;;88.47;34.63;;;;;;;1.09;78.23;99575.50;5111568;28;20035;-22
2022/01/05 05:36:37;;;;;;;50.72;20.80;;;;;;;0.50;80.04;99581.03;5111605;28;20368;-21
2022/01/05 05:39:02;;;;;;;37.67;18.88;;;;;;;0.13;82.69;99577.13;5110893;28;20050;-21
2022/01/05 05:41:28;;;;;;;38.75;20.27;;;;;;;0.08;82.85;99580.22;5111579;28;20032;-21
2022/01/05 05:43:54;;;;;;;30.42;18.23;;;;;;;-0.05;84.50;99583.31;5092827;28;20424;-21
2022/01/05 05:46:19;;;;;;;31.75;17.67;;;;;;;0.41;83.48;99582.84;5110530;28;20501;-21
2022/01/05 05:48:45;;;;;;;33.63;17.02;;;;;;;0.21;83.51;99571.88;5110898;28;20055;-21
2022/01/05 05:51:10;;;;;;;38.92;16.58;;;;;;;0.59;82.63;99585.28;5110892;28;20474;-21
2022/01/05 05:53:36;;;;;;;44.97;17.48;;;;;;;0.43;83.61;99587.91;5111038;28;20036;-21
2022/01/05 05:56:01;;;;;;;37.85;15.63;;;;;;;0.74;83.14;99594.13;5110846;28;20027;-21
2022/01/05 05:58:27;;;;;;;40.70;17.38;;;;;;;0.56;84.31;99593.50;5110804;28;20487;-21
2022/01/05 06:00:52;;;;;;;80.82;19.73;;;;;;;0.90;84.71;99592.44;5110483;28;20062;-20
2022/01/05 06:03:18;;;;;;;163.23;35.63;;;;;;;1.36;82.94;99588.19;5110938;28;20046;-21
2022/01/05 06:05:43;;;;;;;282.05;111.57;;;;;;;1.48;82.92;99578.13;5110715;28;20498;-21
2022/01/05 06:08:08;;;;;;;326.67;140.45;;;;;;;2.06;82.57;99593.56;5110782;28;20054;-21
2022/01/05 06:10:34;;;;;;;276.13;120.00;;;;;;;2.12;81.29;99580.50;5110724;28;20028;-21
2022/01/05 06:13:00;;;;;;;259.17;120.43;;;;;;;2.14;81.89;99606.66;5110594;28;20753;-21
2022/01/05 06:15:25;;;;;;;237.45;117.78;;;;;;;2.24;81.27;99601.97;5110509;28;20084;-21
2022/01/05 06:17:50;;;;;;;197.93;96.07;;;;;;;2.55;79.09;99587.91;5109840;28;20716;-21
2022/01/05 06:20:17;;;;;;;177.45;99.13;;;;;;;2.70;78.40;99606.38;5110292;28;20024;-21
2022/01/05 06:22:42;;;;;;;221.32;101.72;;;;;;;2.75;77.79;99615.34;5110353;28;20031;-21
2022/01/05 06:25:09;;;;;;;237.02;88.43;;;;;;;2.09;81.49;99587.97;5110080;28;20112;-21
2022/01/05 06:27:34;;;;;;;229.32;82.30;;;;;;;1.93;84.41;99604.66;5110383;28;20446;-21
2022/01/05 06:30:06;;;;;;;203.48;82.70;;;;;;;2.37;81.58;99610.09;5110417;28;20120;-21
2022/01/05 06:32:31;;;;;;;175.63;81.20;;;;;;;2.31;79.73;99597.66;5110074;28;20085;-21
2022/01/05 06:34:57;;;;;;;188.52;81.65;;;;;;;1.84;82.58;99617.03;5091325;28;20024;-21
2022/01/05 06:37:22;;;;;;;174.88;75.57;;;;;;;2.53;79.99;99616.22;5110248;28;20036;-20
2022/01/05 06:39:47;;;;;;;153.80;78.20;;;;;;;2.72;78.50;99614.91;5110090;28;20031;-21
2022/01/05 06:42:13;;;;;;;170.38;81.75;;;;;;;2.60;78.76;99622.41;5110012;28;20535;-21
2022/01/05 06:44:38;;;;;;;155.57;78.20;;;;;;;1.78;81.01;99625.63;5109951;28;20475;-21
2022/01/05 06:47:04;;;;;;;177.93;83.75;;;;;;;1.07;84.17;99609.81;5109887;28;20488;-21
2022/01/05 06:49:30;;;;;;;155.93;75.25;;;;;;;0.93;85.47;99613.94;5109815;28;20031;-21
2022/01/05 06:51:55;;;;;;;160.20;74.22;;;;;;;1.08;86.45;99632.44;5109854;28;20035;-21
2022/01/05 06:54:21;;;;;;;164.60;74.47;;;;;;;1.88;82.83;99626.22;5109792;28;20031;-22
2022/01/05 06:56:46;;;;;;;184.25;78.28;;;;;;;2.36;80.00;99637.41;5110232;28;20837;-21
2022/01/05 06:59:13;;;;;;;161.63;81.65;;;;;;;2.53;78.23;99630.19;5108826;28;20046;-21
2022/01/05 07:01:39;;;;;;;146.30;70.15;;;;;;;2.84;77.00;99631.06;5109622;28;20035;-21
2022/01/05 07:04:04;;;;;;;136.27;67.93;;;;;;;3.18;76.00;99625.31;5109582;28;20031;-21
2022/01/05 07:06:30;;;;;;;126.07;68.43;;;;;;;2.88;76.17;99635.00;5109466;28;20031;-21
2022/01/05 07:08:55;;;;;;;117.82;69.72;;;;;;;3.09;75.34;99632.47;5109042;28;20027;-21
2022/01/05 07:11:20;;;;;;;139.32;64.63;;;;;;;2.60;76.75;99627.69;5109366;28;20023;-20
2022/01/05 07:13:46;;;;;;;129.02;61.90;;;;;;;2.36;76.71;99626.88;5109531;28;20073;-21
2022/01/05 07:16:11;;;;;;;121.20;61.13;;;;;;;1.93;79.72;99642.28;5090793;28;20035;-21
2022/01/05 07:18:37;;;;;;;148.70;62.92;;;;;;;2.31;80.88;99645.00;5108858;28;20052;-22
2022/01/05 07:21:02;;;;;;;105.15;57.58;;;;;;;2.55;78.11;99624.75;5108817;28;20028;-21
2022/01/05 07:23:28;;;;;;;118.55;54.22;;;;;;;2.87;78.29;99628.09;5109240;28;20046;-21
2022/01/05 07:25:53;;;;;;;96.53;47.72;;;;;;;3.00;76.11;99634.38;5108933;28;20032;-21
2022/01/05 07:28:18;;;;;;;123.22;49.92;;;;;;;3.07;77.29;99639.75;5109074;28;20027;-21
2022/01/05 07:30:44;;;;;;;82.72;39.10;;;;;;;3.16;76.67;99641.28;5109230;28;20065;-21
2022/01/05 07:33:09;;;;;;;71.63;33.65;;;;;;;3.07;78.16;99645.03;5109009;28;20027;-21
2022/01/05 07:35:35;;;;;;;51.97;26.67;;;;;;;2.97;78.05;99647.09;5108864;28;20093;-21
2022/01/05 07:38:01;;;;;;;55.40;25.35;;;;;;;3.38;77.74;99646.66;5109030;28;20028;-21
2022/01/05 07:40:26;;;;;;;50.63;23.38;;;;;;;3.37;78.09;99655.56;5108920;28;20038;-21
2022/01/05 07:42:51;;;;;;;49.08;22.58;;;;;;;3.05;80.24;99648.84;5108882;28;20046;-21
2022/01/05 07:45:17;;;;;;;40.10;20.02;;;;;;;2.77;80.62;99612.56;5108838;28;20092;-21
2022/01/05 07:47:42;;;;;;;47.00;21.50;;;;;;;3.15;80.45;99637.03;5108927;28;20032;-22
2022/01/05 07:50:14;;;;;;;48.22;22.80;;;;;;;3.21;80.86;99638.94;5109173;28;20027;-22
2022/01/05 07:52:40;;;;;;;38.83;22.33;;;;;;;3.37;81.04;99618.66;5108431;28;20534;-21
2022/01/05 07:55:07;;;;;;;45.72;22.33;;;;;;;3.89;80.99;99636.13;5108402;28;20081;-21
2022/01/05 07:57:33;;;;;;;33.63;21.00;;;;;;;4.05;80.62;99642.19;5108926;28;20043;-21
2022/01/05 07:59:59;;;;;;;36.55;20.77;;;;;;;4.14;81.20;99651.63;5108721;28;20027;-21
2022/01/05 08:02:24;;;;;;;33.65;21.23;;;;;;;4.15;79.28;99642.72;5108896;28;20031;-21
2022/01/05 08:04:50;;;;;;;32.90;20.60;;;;;;;4.42;79.08;99644.59;5108535;28;20030;-21
2022/01/05 08:07:15;;;;;;;34.42;23.58;;;;;;;4.83;77.48;99646.56;5090286;28;20031;-21
2022/01/05 08:09:41;;;;;;;46.88;28.20;;;;;;;8.39;81.21;99639.44;5108253;28;20031;-21
2022/01/05 08:12:07;;;;;;;28.80;20.20;;;;;;;17.89;46.80;99674.56;5108552;28;20039;-21
2022/01/05 08:14:32;;;;;;;26.90;17.77;;;;;;;18.22;39.58;99672.22;5090261;28;20090;-21
2022/01/05 08:16:58;;;;;;;21.42;16.42;;;;;;;18.85;36.46;99683.16;5107950;28;20066;-21
2022/01/05 08:19:23;;;;;;;23.92;17.73;;;;;;;15.40;43.91;99680.25;5108095;28;20039;-21
2022/01/05 08:21:50;;;;;;;32.97;29.35;;;;;;;19.97;37.37;99680.38;5108271;28;20055;-21
2022/01/05 08:24:16;;;;;;;25.88;22.30;;;;;;;18.86;35.96;99679.38;5108453;28;20028;-20
2022/01/05 08:26:41;;;;;;;32.15;24.95;;;;;;;14.65;46.24;99648.03;5108633;28;20035;-21
2022/01/05 08:29:07;;;;;;;62.83;39.40;;;;;;;12.89;49.15;99661.41;5108102;28;20384;-21
2022/01/05 08:31:32;;;;;;;29.92;22.23;;;;;;;11.71;54.60;99654.75;5108325;28;20072;-21
2022/01/05 08:33:59;;;;;;;34.42;29.48;;;;;;;11.39;55.57;99657.00;5108285;28;20478;-21
2022/01/05 08:36:25;;;;;;;25.35;20.42;;;;;;;9.53;59.41;99669.34;5108285;28;20406;-21
2022/01/05 08:38:50;;;;;;;39.83;29.63;;;;;;;9.71;61.99;99646.44;5107915;28;20020;-21
2022/01/05 08:41:16;;;;;;;41.53;33.28;;;;;;;10.98;59.46;99661.44;5108516;28;20743;-21
2022/01/05 08:43:41;;;;;;;27.33;21.50;;;;;;;15.96;45.00;99648.25;5108286;28;20475;-21
2022/01/05 08:46:07;;;;;;;30.75;24.15;;;;;;;14.79;48.82;99669.88;5108211;28;20028;-21
2022/01/05 08:48:32;;;;;;;30.92;20.02;;;;;;;16.04;44.36;99661.19;5108284;28;20060;-21
2022/01/05 08:50:58;;;;;;;29.25;20.45;;;;;;;17.62;41.13;99643.34;5108297;28;20754;-21
2022/01/05 08:53:24;;;;;;;33.08;25.35;;;;;;;17.21;40.94;99642.69;5107957;28;20130;-20
2022/01/05 08:55:50;;;;;;;28.63;21.58;;;;;;;16.78;41.43;99634.91;5108382;28;20047;-21
2022/01/05 08:58:16;;;;;;;31.05;24.65;;;;;;;16.51;42.49;99645.13;5107777;28;20023;-21
2022/01/05 09:04:04;;;;;;;28.33;21.33;;;;;;;16.18;43.87;99615.78;5108273;28;20422;-21
2022/01/05 09:06:30;;;;;;;31.50;22.52;;;;;;;15.94;44.10;99620.03;5097833;28;20495;-23
2022/01/05 09:08:55;;;;;;;25.55;20.42;;;;;;;15.37;46.12;99617.09;5076609;28;20052;-21
2022/01/05 09:11:21;;;;;;;27.33;21.40;;;;;;;15.49;46.01;99619.56;5073984;28;20032;-21
2022/01/05 09:13:46;;;;;;;24.08;19.15;;;;;;;15.80;45.00;99620.50;5067136;28;20036;-21
2022/01/05 09:16:12;;;;;;;27.48;19.90;;;;;;;12.18;52.88;99622.53;5067707;28;20400;-21
2022/01/05 09:18:38;;;;;;;28.90;22.17;;;;;;;11.00;58.42;99630.00;5066918;28;20440;-21
2022/01/05 09:21:04;;;;;;;34.67;27.55;;;;;;;10.62;58.96;99617.91;5068118;28;20880;-21
2022/01/05 09:23:29;;;;;;;32.13;22.88;;;;;;;10.22;59.74;99599.84;5070949;28;20036;-21
2022/01/05 09:25:55;;;;;;;31.10;22.65;;;;;;;9.98;61.05;99597.09;5071084;28;20036;-21
2022/01/05 09:28:20;;;;;;;29.02;22.15;;;;;;;9.56;63.15;99607.69;5070741;28;20025;-21
2022/01/05 09:30:45;;;;;;;53.70;42.78;;;;;;;9.97;61.79;99597.31;5070689;28;20036;-21
2022/01/05 09:33:14;;;;;;;30.25;22.05;;;;;;;10.33;61.69;99604.41;5070694;28;20480;-20
2022/01/05 09:35:40;;;;;;;32.30;22.05;;;;;;;10.67;58.45;99596.69;5070646;28;20422;-22
2022/01/05 09:38:10;;;;;;;31.98;20.77;;;;;;;10.87;57.70;99596.38;5070591;28;20032;-21
2022/01/05 09:43:21;;;;;;;28.33;20.73;;;;;;;10.92;57.84;99574.31;5070806;28;20039;-21
2022/01/05 09:45:53;;;;;;;28.80;19.70;;;;;;;11.22;57.72;99574.19;5070589;28;20037;-21
2022/01/05 09:48:46;;;;;;;31.25;21.08;;;;;;;11.27;55.41;99575.06;5077297;28;20035;-21
2022/01/05 09:51:12;;;;;;;32.88;22.52;;;;;;;11.09;57.66;99577.09;5075438;28;20037;-21
2022/01/05 09:53:37;;;;;;;31.00;20.63;;;;;;;11.20;55.32;99550.38;5052811;28;20035;-21
2022/01/05 09:56:04;;;;;;;32.03;21.38;;;;;;;11.81;55.11;99568.63;5070458;28;20043;-20
2022/01/05 09:58:30;;;;;;;29.00;20.45;;;;;;;12.36;51.81;99567.22;5052209;28;20138;-20
2022/01/05 10:00:55;;;;;;;34.80;23.10;;;;;;;12.18;52.50;99555.72;5052238;28;20791;-20
2022/01/05 10:03:21;;;;;;;31.50;21.20;;;;;;;11.79;53.78;99560.88;5070215;28;20480;-21
2022/01/05 10:05:47;;;;;;;29.40;20.77;;;;;;;11.59;56.18;99561.28;5052270;28;20090;-21
2022/01/05 10:08:12;;;;;;;30.38;20.48;;;;;;;11.97;55.64;99546.53;5070142;28;20477;-22
2022/01/05 10:10:38;;;;;;;30.77;21.27;;;;;;;11.71;56.60;99549.75;5070220;28;20048;-21
2022/01/05 10:13:03;;;;;;;31.75;20.85;;;;;;;11.43;57.35;99530.00;5069462;28;20111;-22
2022/01/05 10:15:29;;;;;;;29.90;20.67;;;;;;;11.96;56.13;99542.22;5069391;28;20098;-20
2022/01/05 10:18:18;;;;;;;28.85;21.08;;;;;;;11.74;58.02;99530.59;5069588;28;20063;-21
2022/01/05 10:21:01;;;;;;;28.50;19.77;;;;;;;11.56;57.78;99532.38;5069725;28;20082;-21
2022/01/05 10:23:33;;;;;;;27.00;20.55;;;;;;;11.68;56.07;99526.19;5069741;28;20041;-21
2022/01/05 10:26:18;;;;;;;30.73;19.65;;;;;;;11.91;55.86;99515.44;5069636;28;20865;-21
2022/01/05 10:28:45;;;;;;;27.17;18.52;;;;;;;12.18;54.41;99506.78;5069734;28;20032;-20
2022/01/05 10:31:15;;;;;;;30.08;19.30;;;;;;;12.67;53.30;99504.31;5069731;28;20108;-20
2022/01/05 10:33:40;;;;;;;28.27;19.48;;;;;;;12.64;53.04;99481.50;5069545;28;20454;-21
2022/01/05 10:36:06;;;;;;;28.45;20.10;;;;;;;13.37;51.54;99505.47;5069604;28;20047;-21
2022/01/05 10:38:31;;;;;;;26.35;18.88;;;;;;;13.80;50.57;99502.97;5069707;28;20424;-21
2022/01/05 10:40:57;;;;;;;27.42;17.90;;;;;;;13.36;50.25;99493.16;5069270;28;20032;-22
2022/01/05 10:43:22;;;;;;;36.15;23.98;;;;;;;13.75;50.03;99484.16;5034590;28;20036;-21
2022/01/05 10:45:51;;;;;;;30.08;20.83;;;;;;;13.71;49.37;99481.19;5069284;28;20490;-21
2022/01/05 10:48:18;;;;;;;32.13;21.35;;;;;;;13.83;50.21;99491.72;5069227;28;20135;-21
2022/01/05 10:50:44;;;;;;;30.45;20.85;;;;;;;13.41;50.70;99485.16;5069082;28;20032;-21
2022/01/05 10:53:10;;;;;;;32.15;20.98;;;;;;;14.10;48.14;99489.03;5068821;28;20029;-21
2022/01/05 10:55:40;;;;;;;36.95;22.52;;;;;;;14.45;47.52;99483.09;5034924;28;20029;-21
2022/01/05 10:58:07;;;;;;;37.38;23.00;;;;;;;14.57;47.17;99468.72;5069082;28;20269;-20
2022/01/05 11:00:46;;;;;;;46.50;34.27;;;;;;;14.74;45.75;99472.03;5069317;28;20036;-21
2022/01/05 11:03:25;;;;;;;36.97;22.38;;;;;;;14.91;45.44;99458.41;5068737;28;20024;-20
2022/01/05 11:06:11;;;;;;;38.60;23.90;;;;;;;15.30;44.40;99443.78;5069125;28;20111;-20
2022/01/05 11:08:59;;;;;;;35.85;23.30;;;;;;;15.76;43.47;99458.13;5068856;28;20024;-21
2022/01/05 11:11:41;;;;;;;32.30;23.05;;;;;;;15.72;43.80;99467.78;5068907;28;20035;-20
2022/01/05 11:14:30;;;;;;;35.42;23.13;;;;;;;16.23;41.85;99456.22;5069163;28;20559;-21
2022/01/05 11:16:56;;;;;;;29.40;22.95;;;;;;;16.54;42.33;99437.34;5058063;28;20044;-22
2022/01/05 11:19:28;;;;;;;33.33;24.27;;;;;;;16.97;41.17;99457.41;5068952;28;20335;-21
2022/01/05 11:21:55;;;;;;;29.85;19.27;;;;;;;16.87;41.28;99458.25;5068259;28;20495;-21
2022/01/05 11:24:21;;;;;;;24.83;17.38;;;;;;;17.23;40.44;99465.38;5068497;28;20024;-20
2022/01/05 11:26:46;;;;;;;29.55;19.75;;;;;;;17.31;41.25;99454.00;5050712;28;20040;-21